Belden, Mississippi
Current Conditions -  °F | °C
As of 9:53 AM on Thursday 30 Oct 2014 (Local Time) from KTUP Reporting Station
Clear Clear  
Wind Chill: 54°   Ceiling: Unl
Heat Index: 54°   Visibility: 10mi
Dew Point: 45°   Wind: 5mph
Humidity: 72%   Direction: 60°ENE
Pressure: 30.18"   Gusts: NA
Location:  34.31°N, 88.79°W
Report Text: KTUP 301453Z 06004KT 10SM CLR 12/07 A3018 RMK AO2 SLP218 T01220072 51011
Loading
Personal Weather Stations






























Interactive Weather Map
Tropical Storm Tracking
New forecast layout! Learn more

10-Day Weather Forecast

Advertisements
Track Severe Weather on mobile